sensor_id;sensor_type;location;lat;lon;timestamp;pressure;altitude;pressure_sealevel;temperature;humidity
73633;BME280;61927;50.080;14.418;2023-05-25T00:02:01;100067.69;;;11.68;61.83
73633;BME280;61927;50.080;14.418;2023-05-25T00:04:32;100065.81;;;11.70;61.68
73633;BME280;61927;50.080;14.418;2023-05-25T00:07:02;100065.97;;;11.51;60.91
73633;BME280;61927;50.080;14.418;2023-05-25T00:09:27;100057.41;;;11.30;61.74
73633;BME280;61927;50.080;14.418;2023-05-25T00:11:54;100063.91;;;11.24;62.07
73633;BME280;61927;50.080;14.418;2023-05-25T00:14:20;100065.09;;;11.19;61.54
73633;BME280;61927;50.080;14.418;2023-05-25T00:16:45;100057.72;;;11.08;61.91
73633;BME280;61927;50.080;14.418;2023-05-25T00:19:13;100051.72;;;11.05;61.76
73633;BME280;61927;50.080;14.418;2023-05-25T00:21:42;100051.44;;;10.93;61.99
73633;BME280;61927;50.080;14.418;2023-05-25T00:24:08;100053.56;;;10.87;62.08
73633;BME280;61927;50.080;14.418;2023-05-25T00:26:34;100052.69;;;10.86;62.39
73633;BME280;61927;50.080;14.418;2023-05-25T00:29:00;100049.81;;;10.91;62.03
73633;BME280;61927;50.080;14.418;2023-05-25T00:31:26;100060.94;;;10.97;61.87
73633;BME280;61927;50.080;14.418;2023-05-25T00:33:52;100051.88;;;11.02;62.08
73633;BME280;61927;50.080;14.418;2023-05-25T00:36:18;100058.66;;;11.07;61.48
73633;BME280;61927;50.080;14.418;2023-05-25T00:38:43;100059.00;;;11.17;61.64
73633;BME280;61927;50.080;14.418;2023-05-25T00:41:09;100056.00;;;11.07;61.34
73633;BME280;61927;50.080;14.418;2023-05-25T00:43:35;100061.13;;;10.94;61.46
73633;BME280;61927;50.080;14.418;2023-05-25T00:46:01;100053.41;;;10.90;61.81
73633;BME280;61927;50.080;14.418;2023-05-25T00:48:27;100054.41;;;10.87;61.81
73633;BME280;61927;50.080;14.418;2023-05-25T00:50:54;100054.66;;;10.83;61.98
73633;BME280;61927;50.080;14.418;2023-05-25T00:53:24;100051.31;;;10.79;62.39
73633;BME280;61927;50.080;14.418;2023-05-25T00:56:01;100055.84;;;10.77;62.48
73633;BME280;61927;50.080;14.418;2023-05-25T00:58:30;100055.69;;;10.80;62.59
73633;BME280;61927;50.080;14.418;2023-05-25T01:00:59;100054.66;;;10.83;62.13
73633;BME280;61927;50.080;14.418;2023-05-25T01:03:27;100056.22;;;10.87;64.02
73633;BME280;61927;50.080;14.418;2023-05-25T01:05:56;100057.84;;;10.89;65.49
73633;BME280;61927;50.080;14.418;2023-05-25T01:08:24;100063.06;;;10.91;65.95
73633;BME280;61927;50.080;14.418;2023-05-25T01:10:51;100060.59;;;10.88;65.51
73633;BME280;61927;50.080;14.418;2023-05-25T01:13:19;100059.19;;;10.81;65.31
73633;BME280;61927;50.080;14.418;2023-05-25T01:15:51;100056.69;;;10.78;65.47
73633;BME280;61927;50.080;14.418;2023-05-25T01:18:18;100062.88;;;10.78;65.14
73633;BME280;61927;50.080;14.418;2023-05-25T01:20:53;100064.59;;;10.79;65.37
73633;BME280;61927;50.080;14.418;2023-05-25T01:23:25;100065.13;;;10.86;64.78
73633;BME280;61927;50.080;14.418;2023-05-25T01:25:56;100069.50;;;10.87;64.63
73633;BME280;61927;50.080;14.418;2023-05-25T01:28:34;100064.50;;;10.81;64.09
73633;BME280;61927;50.080;14.418;2023-05-25T01:31:05;100065.84;;;10.72;64.47
73633;BME280;61927;50.080;14.418;2023-05-25T01:33:32;100068.03;;;10.64;65.40
73633;BME280;61927;50.080;14.418;2023-05-25T01:36:00;100058.53;;;10.60;64.01
73633;BME280;61927;50.080;14.418;2023-05-25T01:38:25;100064.22;;;10.52;64.11
73633;BME280;61927;50.080;14.418;2023-05-25T01:40:51;100061.19;;;10.43;64.10
73633;BME280;61927;50.080;14.418;2023-05-25T01:43:17;100070.25;;;10.39;64.12
73633;BME280;61927;50.080;14.418;2023-05-25T01:45:42;100071.88;;;10.41;64.29
73633;BME280;61927;50.080;14.418;2023-05-25T01:48:39;100073.13;;;10.51;64.31
73633;BME280;61927;50.080;14.418;2023-05-25T01:51:18;100078.44;;;10.51;64.85
73633;BME280;61927;50.080;14.418;2023-05-25T01:53:57;100079.06;;;10.56;66.28
73633;BME280;61927;50.080;14.418;2023-05-25T01:56:24;100070.88;;;10.61;66.03
73633;BME280;61927;50.080;14.418;2023-05-25T01:58:52;100071.03;;;10.58;65.53
73633;BME280;61927;50.080;14.418;2023-05-25T02:01:18;100073.84;;;10.55;66.19
73633;BME280;61927;50.080;14.418;2023-05-25T02:03:46;100074.00;;;10.52;66.16
73633;BME280;61927;50.080;14.418;2023-05-25T02:06:14;100069.84;;;10.46;67.17
73633;BME280;61927;50.080;14.418;2023-05-25T02:08:40;100069.84;;;10.46;67.18
73633;BME280;61927;50.080;14.418;2023-05-25T02:11:06;100067.13;;;10.48;67.04
73633;BME280;61927;50.080;14.418;2023-05-25T02:13:31;100070.09;;;10.42;67.28
73633;BME280;61927;50.080;14.418;2023-05-25T02:15:57;100072.81;;;10.40;67.47
73633;BME280;61927;50.080;14.418;2023-05-25T02:18:23;100075.56;;;10.39;67.39
73633;BME280;61927;50.080;14.418;2023-05-25T02:20:48;100081.03;;;10.35;67.49
73633;BME280;61927;50.080;14.418;2023-05-25T02:23:14;100085.53;;;10.33;67.41
73633;BME280;61927;50.080;14.418;2023-05-25T02:25:43;100090.31;;;10.27;67.64
73633;BME280;61927;50.080;14.418;2023-05-25T02:28:08;100084.56;;;10.17;67.91
73633;BME280;61927;50.080;14.418;2023-05-25T02:30:34;100095.47;;;10.11;68.44
73633;BME280;61927;50.080;14.418;2023-05-25T02:33:00;100093.22;;;10.03;68.50
73633;BME280;61927;50.080;14.418;2023-05-25T02:35:26;100096.00;;;10.00;68.92
73633;BME280;61927;50.080;14.418;2023-05-25T02:37:52;100092.81;;;9.94;68.83
73633;BME280;61927;50.080;14.418;2023-05-25T02:40:18;100104.72;;;9.85;68.73
73633;BME280;61927;50.080;14.418;2023-05-25T02:42:43;100101.66;;;9.76;68.52
73633;BME280;61927;50.080;14.418;2023-05-25T02:45:09;100103.66;;;9.70;69.72
73633;BME280;61927;50.080;14.418;2023-05-25T02:47:35;100108.88;;;9.72;69.12
73633;BME280;61927;50.080;14.418;2023-05-25T02:50:02;100103.50;;;9.74;69.18
73633;BME280;61927;50.080;14.418;2023-05-25T02:52:27;100114.19;;;9.72;69.36
73633;BME280;61927;50.080;14.418;2023-05-25T02:54:55;100116.75;;;9.74;69.37
73633;BME280;61927;50.080;14.418;2023-05-25T02:57:20;100120.34;;;9.73;69.64
73633;BME280;61927;50.080;14.418;2023-05-25T02:59:48;100117.84;;;9.69;69.37
73633;BME280;61927;50.080;14.418;2023-05-25T03:02:14;100121.28;;;9.71;69.85
73633;BME280;61927;50.080;14.418;2023-05-25T03:04:43;100119.69;;;9.67;69.25
73633;BME280;61927;50.080;14.418;2023-05-25T03:07:11;100118.28;;;9.60;69.36
73633;BME280;61927;50.080;14.418;2023-05-25T03:09:37;100117.56;;;9.57;69.88
73633;BME280;61927;50.080;14.418;2023-05-25T03:12:02;100117.69;;;9.54;69.40
73633;BME280;61927;50.080;14.418;2023-05-25T03:14:28;100109.81;;;9.52;69.40
73633;BME280;61927;50.080;14.418;2023-05-25T03:16:53;100114.78;;;9.41;70.10
73633;BME280;61927;50.080;14.418;2023-05-25T03:19:19;100109.63;;;9.38;70.06
73633;BME280;61927;50.080;14.418;2023-05-25T03:21:45;100106.81;;;9.41;70.21
73633;BME280;61927;50.080;14.418;2023-05-25T03:24:12;100105.75;;;9.45;70.19
73633;BME280;61927;50.080;14.418;2023-05-25T03:26:37;100101.16;;;9.49;69.31
73633;BME280;61927;50.080;14.418;2023-05-25T03:29:03;100116.00;;;9.53;69.75
73633;BME280;61927;50.080;14.418;2023-05-25T03:31:31;100113.19;;;9.56;69.26
73633;BME280;61927;50.080;14.418;2023-05-25T03:33:57;100114.75;;;9.60;69.29
73633;BME280;61927;50.080;14.418;2023-05-25T03:36:22;100120.78;;;9.63;68.72
73633;BME280;61927;50.080;14.418;2023-05-25T03:38:52;100127.66;;;9.67;69.00
73633;BME280;61927;50.080;14.418;2023-05-25T03:41:18;100127.34;;;9.74;68.14
73633;BME280;61927;50.080;14.418;2023-05-25T03:43:44;100125.16;;;9.64;68.04
73633;BME280;61927;50.080;14.418;2023-05-25T03:46:09;100133.38;;;9.58;68.25
73633;BME280;61927;50.080;14.418;2023-05-25T03:48:36;100140.69;;;9.53;68.45
73633;BME280;61927;50.080;14.418;2023-05-25T03:51:02;100139.81;;;9.53;68.87
73633;BME280;61927;50.080;14.418;2023-05-25T03:53:28;100133.53;;;9.55;68.96
73633;BME280;61927;50.080;14.418;2023-05-25T03:55:54;100137.75;;;9.59;68.54
73633;BME280;61927;50.080;14.418;2023-05-25T03:58:20;100134.16;;;9.60;68.56
73633;BME280;61927;50.080;14.418;2023-05-25T04:00:45;100137.69;;;9.61;68.25
73633;BME280;61927;50.080;14.418;2023-05-25T04:03:13;100138.47;;;9.63;68.61
73633;BME280;61927;50.080;14.418;2023-05-25T04:05:39;100143.78;;;9.63;69.23
73633;BME280;61927;50.080;14.418;2023-05-25T04:08:06;100147.91;;;9.68;68.79
73633;BME280;61927;50.080;14.418;2023-05-25T04:10:34;100144.06;;;9.76;68.62
73633;BME280;61927;50.080;14.418;2023-05-25T04:12:59;100151.84;;;9.79;68.45
73633;BME280;61927;50.080;14.418;2023-05-25T04:15:25;100151.63;;;9.83;68.27
73633;BME280;61927;50.080;14.418;2023-05-25T04:17:51;100147.97;;;9.86;68.07
73633;BME280;61927;50.080;14.418;2023-05-25T04:20:16;100149.84;;;9.84;68.06
73633;BME280;61927;50.080;14.418;2023-05-25T04:22:42;100158.72;;;9.83;67.67
73633;BME280;61927;50.080;14.418;2023-05-25T04:25:09;100164.66;;;9.88;67.51
73633;BME280;61927;50.080;14.418;2023-05-25T04:27:35;100154.78;;;9.91;67.72
73633;BME280;61927;50.080;14.418;2023-05-25T04:30:01;100155.50;;;9.95;67.61
73633;BME280;61927;50.080;14.418;2023-05-25T04:32:27;100156.13;;;10.00;67.54
73633;BME280;61927;50.080;14.418;2023-05-25T04:34:54;100155.91;;;10.04;67.25
73633;BME280;61927;50.080;14.418;2023-05-25T04:37:22;100149.44;;;10.10;66.71
73633;BME280;61927;50.080;14.418;2023-05-25T04:39:52;100148.28;;;10.16;65.01
73633;BME280;61927;50.080;14.418;2023-05-25T04:42:19;100149.31;;;10.13;65.53
73633;BME280;61927;50.080;14.418;2023-05-25T04:44:51;100147.50;;;10.14;64.86
73633;BME280;61927;50.080;14.418;2023-05-25T04:47:20;100153.66;;;10.14;65.24
73633;BME280;61927;50.080;14.418;2023-05-25T04:49:46;100154.44;;;10.16;65.13
73633;BME280;61927;50.080;14.418;2023-05-25T04:52:12;100156.84;;;10.22;65.36
73633;BME280;61927;50.080;14.418;2023-05-25T04:54:37;100154.81;;;10.27;64.78
73633;BME280;61927;50.080;14.418;2023-05-25T04:57:03;100162.56;;;10.32;64.67
73633;BME280;61927;50.080;14.418;2023-05-25T04:59:29;100160.13;;;10.27;64.59
73633;BME280;61927;50.080;14.418;2023-05-25T05:01:55;100158.81;;;10.17;64.66
73633;BME280;61927;50.080;14.418;2023-05-25T05:04:20;100161.28;;;10.22;64.57
73633;BME280;61927;50.080;14.418;2023-05-25T05:06:46;100157.97;;;10.17;64.08
73633;BME280;61927;50.080;14.418;2023-05-25T05:09:11;100162.41;;;10.16;64.38
73633;BME280;61927;50.080;14.418;2023-05-25T05:11:37;100162.22;;;10.21;64.49
73633;BME280;61927;50.080;14.418;2023-05-25T05:14:03;100167.94;;;10.30;64.71
73633;BME280;61927;50.080;14.418;2023-05-25T05:16:29;100162.31;;;10.37;64.42
73633;BME280;61927;50.080;14.418;2023-05-25T05:18:59;100157.50;;;10.45;63.71
73633;BME280;61927;50.080;14.418;2023-05-25T05:21:25;100169.44;;;10.53;63.47
73633;BME280;61927;50.080;14.418;2023-05-25T05:23:50;100172.66;;;10.60;63.49
73633;BME280;61927;50.080;14.418;2023-05-25T05:26:16;100172.94;;;10.54;63.31
73633;BME280;61927;50.080;14.418;2023-05-25T05:28:44;100175.75;;;10.51;63.79
73633;BME280;61927;50.080;14.418;2023-05-25T05:31:10;100174.34;;;10.44;63.62
73633;BME280;61927;50.080;14.418;2023-05-25T05:33:36;100177.63;;;10.49;63.37
73633;BME280;61927;50.080;14.418;2023-05-25T05:36:02;100185.22;;;10.56;63.15
73633;BME280;61927;50.080;14.418;2023-05-25T05:38:29;100183.00;;;10.47;63.60
73633;BME280;61927;50.080;14.418;2023-05-25T05:40:55;100180.66;;;10.41;63.91
73633;BME280;61927;50.080;14.418;2023-05-25T05:43:20;100182.47;;;10.41;63.70
73633;BME280;61927;50.080;14.418;2023-05-25T05:45:46;100180.66;;;10.41;63.60
73633;BME280;61927;50.080;14.418;2023-05-25T05:48:12;100187.63;;;10.44;63.48
73633;BME280;61927;50.080;14.418;2023-05-25T05:50:38;100189.63;;;10.39;63.47
73633;BME280;61927;50.080;14.418;2023-05-25T05:53:04;100193.41;;;10.52;63.58
73633;BME280;61927;50.080;14.418;2023-05-25T05:55:33;100194.19;;;10.54;63.16
73633;BME280;61927;50.080;14.418;2023-05-25T05:57:58;100199.94;;;10.45;63.29
73633;BME280;61927;50.080;14.418;2023-05-25T06:00:24;100191.59;;;10.52;63.37
73633;BME280;61927;50.080;14.418;2023-05-25T06:02:50;100197.16;;;10.65;63.34
73633;BME280;61927;50.080;14.418;2023-05-25T06:05:16;100193.09;;;10.75;63.12
73633;BME280;61927;50.080;14.418;2023-05-25T06:07:42;100192.94;;;10.78;63.09
73633;BME280;61927;50.080;14.418;2023-05-25T06:10:08;100197.72;;;10.89;62.49
73633;BME280;61927;50.080;14.418;2023-05-25T06:12:35;100199.13;;;10.96;62.32
73633;BME280;61927;50.080;14.418;2023-05-25T06:15:03;100203.25;;;11.02;62.14
73633;BME280;61927;50.080;14.418;2023-05-25T06:17:28;100206.38;;;11.10;62.19
73633;BME280;61927;50.080;14.418;2023-05-25T06:19:54;100205.03;;;11.18;62.21
73633;BME280;61927;50.080;14.418;2023-05-25T06:22:20;100199.31;;;11.26;61.89
73633;BME280;61927;50.080;14.418;2023-05-25T06:24:47;100213.91;;;11.35;61.99
73633;BME280;61927;50.080;14.418;2023-05-25T06:27:12;100196.00;;;11.38;61.42
73633;BME280;61927;50.080;14.418;2023-05-25T06:29:38;100202.00;;;11.42;61.49
73633;BME280;61927;50.080;14.418;2023-05-25T06:32:04;100198.94;;;11.49;61.15
73633;BME280;61927;50.080;14.418;2023-05-25T06:34:29;100196.41;;;11.63;60.88
73633;BME280;61927;50.080;14.418;2023-05-25T06:36:55;100192.63;;;11.68;60.65
73633;BME280;61927;50.080;14.418;2023-05-25T06:39:22;100199.50;;;11.72;60.57
73633;BME280;61927;50.080;14.418;2023-05-25T06:41:48;100195.53;;;11.80;60.57
73633;BME280;61927;50.080;14.418;2023-05-25T06:44:15;100196.81;;;11.89;60.26
73633;BME280;61927;50.080;14.418;2023-05-25T06:46:41;100197.75;;;12.04;59.83
73633;BME280;61927;50.080;14.418;2023-05-25T06:49:07;100193.72;;;12.12;59.19
73633;BME280;61927;50.080;14.418;2023-05-25T06:51:32;100202.22;;;12.19;58.89
73633;BME280;61927;50.080;14.418;2023-05-25T06:53:58;100202.56;;;12.28;57.97
73633;BME280;61927;50.080;14.418;2023-05-25T06:56:24;100197.41;;;12.25;58.00
73633;BME280;61927;50.080;14.418;2023-05-25T06:58:50;100204.19;;;12.31;57.89
73633;BME280;61927;50.080;14.418;2023-05-25T07:01:15;100197.13;;;12.46;57.46
73633;BME280;61927;50.080;14.418;2023-05-25T07:03:41;100199.06;;;12.58;57.28
73633;BME280;61927;50.080;14.418;2023-05-25T07:06:07;100205.59;;;12.68;56.89
73633;BME280;61927;50.080;14.418;2023-05-25T07:08:33;100200.47;;;12.79;56.31
73633;BME280;61927;50.080;14.418;2023-05-25T07:10:59;100203.91;;;12.81;55.92
73633;BME280;61927;50.080;14.418;2023-05-25T07:13:25;100197.22;;;12.74;56.60
73633;BME280;61927;50.080;14.418;2023-05-25T07:15:51;100200.31;;;12.82;56.42
73633;BME280;61927;50.080;14.418;2023-05-25T07:18:17;100202.34;;;12.93;55.98
73633;BME280;61927;50.080;14.418;2023-05-25T07:20:43;100187.97;;;12.96;56.10
73633;BME280;61927;50.080;14.418;2023-05-25T07:23:10;100199.69;;;13.07;56.48
73633;BME280;61927;50.080;14.418;2023-05-25T07:25:39;100198.13;;;13.19;55.81
73633;BME280;61927;50.080;14.418;2023-05-25T07:28:06;100199.66;;;13.23;55.45
73633;BME280;61927;50.080;14.418;2023-05-25T07:30:32;100201.09;;;13.29;55.02
73633;BME280;61927;50.080;14.418;2023-05-25T07:32:58;100207.16;;;13.16;55.61
73633;BME280;61927;50.080;14.418;2023-05-25T07:35:24;100206.22;;;13.17;55.91
73633;BME280;61927;50.080;14.418;2023-05-25T07:37:58;100206.53;;;13.27;55.80
73633;BME280;61927;50.080;14.418;2023-05-25T07:40:24;100202.53;;;13.34;55.64
73633;BME280;61927;50.080;14.418;2023-05-25T07:42:51;100199.50;;;13.40;55.60
73633;BME280;61927;50.080;14.418;2023-05-25T07:45:16;100195.88;;;13.55;55.11
73633;BME280;61927;50.080;14.418;2023-05-25T07:47:42;100196.44;;;13.61;54.89
73633;BME280;61927;50.080;14.418;2023-05-25T07:50:09;100199.59;;;13.67;55.24
73633;BME280;61927;50.080;14.418;2023-05-25T07:52:35;100195.69;;;13.58;55.16
73633;BME280;61927;50.080;14.418;2023-05-25T07:55:04;100190.63;;;13.54;55.54
73633;BME280;61927;50.080;14.418;2023-05-25T07:57:30;100193.69;;;13.62;55.42
73633;BME280;61927;50.080;14.418;2023-05-25T07:59:56;100195.94;;;13.82;55.22
73633;BME280;61927;50.080;14.418;2023-05-25T08:02:22;100204.13;;;13.94;54.57
73633;BME280;61927;50.080;14.418;2023-05-25T08:04:47;100205.53;;;13.99;54.58
73633;BME280;61927;50.080;14.418;2023-05-25T08:07:13;100200.28;;;14.12;54.75
73633;BME280;61927;50.080;14.418;2023-05-25T08:09:39;100196.53;;;14.29;53.89
73633;BME280;61927;50.080;14.418;2023-05-25T08:12:05;100206.88;;;14.47;53.97
73633;BME280;61927;50.080;14.418;2023-05-25T08:14:31;100204.47;;;14.57;53.54
73633;BME280;61927;50.080;14.418;2023-05-25T08:16:56;100205.75;;;14.64;52.66
73633;BME280;61927;50.080;14.418;2023-05-25T08:19:22;100209.19;;;14.66;52.81
73633;BME280;61927;50.080;14.418;2023-05-25T08:21:49;100201.94;;;14.68;52.56
73633;BME280;61927;50.080;14.418;2023-05-25T08:24:15;100208.78;;;14.72;52.92
73633;BME280;61927;50.080;14.418;2023-05-25T08:26:41;100209.03;;;14.82;52.43
73633;BME280;61927;50.080;14.418;2023-05-25T08:29:07;100209.25;;;14.92;52.59
73633;BME280;61927;50.080;14.418;2023-05-25T08:31:33;100202.88;;;15.07;52.38
73633;BME280;61927;50.080;14.418;2023-05-25T08:34:00;100197.09;;;15.13;51.74
73633;BME280;61927;50.080;14.418;2023-05-25T08:36:26;100196.56;;;15.08;51.73
73633;BME280;61927;50.080;14.418;2023-05-25T08:38:52;100195.91;;;15.04;51.44
73633;BME280;61927;50.080;14.418;2023-05-25T08:41:18;100192.59;;;15.01;50.92
73633;BME280;61927;50.080;14.418;2023-05-25T08:43:47;100188.75;;;15.05;51.30
73633;BME280;61927;50.080;14.418;2023-05-25T08:46:13;100189.41;;;15.08;51.25
73633;BME280;61927;50.080;14.418;2023-05-25T08:48:40;100183.75;;;15.13;50.77
73633;BME280;61927;50.080;14.418;2023-05-25T08:51:07;100172.72;;;15.17;51.05
73633;BME280;61927;50.080;14.418;2023-05-25T08:53:38;100178.28;;;15.27;50.76
73633;BME280;61927;50.080;14.418;2023-05-25T08:56:09;100177.88;;;15.33;50.50
73633;BME280;61927;50.080;14.418;2023-05-25T08:58:41;100179.03;;;15.42;50.12
73633;BME280;61927;50.080;14.418;2023-05-25T09:01:12;100180.22;;;15.38;49.99
73633;BME280;61927;50.080;14.418;2023-05-25T09:03:40;100191.44;;;15.43;49.43
73633;BME280;61927;50.080;14.418;2023-05-25T09:06:06;100181.72;;;15.42;49.27
73633;BME280;61927;50.080;14.418;2023-05-25T09:08:33;100183.94;;;15.48;48.63
73633;BME280;61927;50.080;14.418;2023-05-25T09:11:00;100179.78;;;15.57;48.64
73633;BME280;61927;50.080;14.418;2023-05-25T09:13:26;100185.91;;;15.59;48.52
73633;BME280;61927;50.080;14.418;2023-05-25T09:15:52;100183.88;;;15.62;48.27
73633;BME280;61927;50.080;14.418;2023-05-25T09:18:18;100186.63;;;15.73;48.38
73633;BME280;61927;50.080;14.418;2023-05-25T09:20:44;100192.63;;;15.77;48.32
73633;BME280;61927;50.080;14.418;2023-05-25T09:23:10;100190.25;;;15.85;48.06
73633;BME280;61927;50.080;14.418;2023-05-25T09:25:37;100179.75;;;15.95;46.38
73633;BME280;61927;50.080;14.418;2023-05-25T09:28:02;100182.91;;;16.12;46.13
73633;BME280;61927;50.080;14.418;2023-05-25T09:30:28;100185.69;;;16.11;45.81
73633;BME280;61927;50.080;14.418;2023-05-25T09:33:11;100179.03;;;16.17;45.72
73633;BME280;61927;50.080;14.418;2023-05-25T09:35:38;100174.19;;;16.22;45.21
73633;BME280;61927;50.080;14.418;2023-05-25T09:38:05;100179.22;;;16.26;45.49
73633;BME280;61927;50.080;14.418;2023-05-25T09:40:34;100173.72;;;16.28;44.86
73633;BME280;61927;50.080;14.418;2023-05-25T09:43:03;100179.03;;;16.40;44.94
73633;BME280;61927;50.080;14.418;2023-05-25T09:45:32;100172.31;;;16.59;44.53
73633;BME280;61927;50.080;14.418;2023-05-25T09:47:58;100189.09;;;16.73;43.78
73633;BME280;61927;50.080;14.418;2023-05-25T09:50:28;100180.06;;;16.74;43.57
73633;BME280;61927;50.080;14.418;2023-05-25T09:52:58;100175.91;;;16.70;44.12
73633;BME280;61927;50.080;14.418;2023-05-25T09:55:28;100176.03;;;16.69;44.47
73633;BME280;61927;50.080;14.418;2023-05-25T09:57:54;100175.56;;;16.75;43.60
73633;BME280;61927;50.080;14.418;2023-05-25T10:00:23;100177.63;;;16.71;43.72
73633;BME280;61927;50.080;14.418;2023-05-25T10:02:49;100179.69;;;16.68;43.90
73633;BME280;61927;50.080;14.418;2023-05-25T10:05:15;100175.81;;;16.72;43.55
73633;BME280;61927;50.080;14.418;2023-05-25T10:07:43;100174.25;;;16.81;43.87
73633;BME280;61927;50.080;14.418;2023-05-25T10:10:12;100178.06;;;16.89;43.68
73633;BME280;61927;50.080;14.418;2023-05-25T10:12:40;100170.41;;;16.96;42.84
73633;BME280;61927;50.080;14.418;2023-05-25T10:15:12;100173.47;;;17.02;43.30
73633;BME280;61927;50.080;14.418;2023-05-25T10:17:53;100172.75;;;17.11;43.08
73633;BME280;61927;50.080;14.418;2023-05-25T10:20:22;100168.50;;;17.20;43.14
73633;BME280;61927;50.080;14.418;2023-05-25T10:23:08;100164.72;;;17.23;42.42
73633;BME280;61927;50.080;14.418;2023-05-25T10:25:46;100161.81;;;17.26;42.38
73633;BME280;61927;50.080;14.418;2023-05-25T10:28:18;100159.13;;;17.26;42.20
73633;BME280;61927;50.080;14.418;2023-05-25T10:30:47;100148.03;;;17.30;42.46
73633;BME280;61927;50.080;14.418;2023-05-25T10:33:13;100147.53;;;17.36;42.33
73633;BME280;61927;50.080;14.418;2023-05-25T10:35:42;100145.34;;;17.41;42.13
73633;BME280;61927;50.080;14.418;2023-05-25T10:38:09;100145.84;;;17.47;41.78
73633;BME280;61927;50.080;14.418;2023-05-25T10:40:34;100137.66;;;17.48;41.69
73633;BME280;61927;50.080;14.418;2023-05-25T10:43:01;100135.97;;;17.47;41.82
73633;BME280;61927;50.080;14.418;2023-05-25T10:45:28;100140.00;;;17.53;41.99
73633;BME280;61927;50.080;14.418;2023-05-25T10:47:53;100125.59;;;17.65;41.81
73633;BME280;61927;50.080;14.418;2023-05-25T10:50:21;100127.19;;;17.79;41.20
73633;BME280;61927;50.080;14.418;2023-05-25T10:52:59;100138.41;;;17.84;40.91
73633;BME280;61927;50.080;14.418;2023-05-25T10:55:27;100124.16;;;17.72;40.86
73633;BME280;61927;50.080;14.418;2023-05-25T11:00:35;100123.88;;;17.97;41.01
73633;BME280;61927;50.080;14.418;2023-05-25T11:03:00;100119.66;;;18.16;40.14
73633;BME280;61927;50.080;14.418;2023-05-25T11:07:56;100121.75;;;18.12;40.42
73633;BME280;61927;50.080;14.418;2023-05-25T11:18:45;100113.69;;;18.44;39.87
73633;BME280;61927;50.080;14.418;2023-05-25T11:24:00;100109.78;;;18.48;39.86
73633;BME280;61927;50.080;14.418;2023-05-25T11:26:34;100105.50;;;18.46;39.08
73633;BME280;61927;50.080;14.418;2023-05-25T11:29:11;100103.69;;;18.46;38.96
73633;BME280;61927;50.080;14.418;2023-05-25T11:31:37;100094.28;;;18.73;38.37
73633;BME280;61927;50.080;14.418;2023-05-25T11:34:03;100093.69;;;18.90;37.99
73633;BME280;61927;50.080;14.418;2023-05-25T11:36:31;100096.03;;;19.04;36.91
73633;BME280;61927;50.080;14.418;2023-05-25T11:39:03;100099.00;;;19.01;37.09
73633;BME280;61927;50.080;14.418;2023-05-25T11:41:29;100099.31;;;19.08;37.52
73633;BME280;61927;50.080;14.418;2023-05-25T11:44:03;100094.84;;;19.18;37.74
73633;BME280;61927;50.080;14.418;2023-05-25T11:46:33;100088.34;;;19.20;37.56
73633;BME280;61927;50.080;14.418;2023-05-25T11:48:59;100088.03;;;19.14;37.77
73633;BME280;61927;50.080;14.418;2023-05-25T11:51:28;100082.81;;;19.22;36.90
73633;BME280;61927;50.080;14.418;2023-05-25T11:54:26;100074.53;;;19.34;36.71
73633;BME280;61927;50.080;14.418;2023-05-25T11:56:54;100079.28;;;19.52;36.19
73633;BME280;61927;50.080;14.418;2023-05-25T11:59:37;100071.16;;;19.42;36.55
73633;BME280;61927;50.080;14.418;2023-05-25T12:02:04;100077.97;;;19.46;37.19
73633;BME280;61927;50.080;14.418;2023-05-25T12:04:31;100070.16;;;19.43;37.42
73633;BME280;61927;50.080;14.418;2023-05-25T12:07:05;100071.47;;;19.49;37.68
73633;BME280;61927;50.080;14.418;2023-05-25T12:09:31;100077.22;;;19.65;36.71
73633;BME280;61927;50.080;14.418;2023-05-25T12:11:57;100073.38;;;19.58;35.81
73633;BME280;61927;50.080;14.418;2023-05-25T12:14:23;100070.81;;;19.56;36.18
73633;BME280;61927;50.080;14.418;2023-05-25T12:16:50;100067.44;;;19.64;36.25
73633;BME280;61927;50.080;14.418;2023-05-25T12:19:16;100067.88;;;19.69;35.92
73633;BME280;61927;50.080;14.418;2023-05-25T12:21:43;100076.53;;;19.73;35.98
73633;BME280;61927;50.080;14.418;2023-05-25T12:24:10;100065.34;;;19.77;35.91
73633;BME280;61927;50.080;14.418;2023-05-25T12:26:49;100069.59;;;19.80;35.71
73633;BME280;61927;50.080;14.418;2023-05-25T12:29:15;100067.06;;;19.97;34.98
73633;BME280;61927;50.080;14.418;2023-05-25T12:31:41;100060.84;;;20.07;34.11
73633;BME280;61927;50.080;14.418;2023-05-25T12:34:19;100060.44;;;20.11;33.91
73633;BME280;61927;50.080;14.418;2023-05-25T12:36:53;100064.53;;;20.06;35.06
73633;BME280;61927;50.080;14.418;2023-05-25T12:41:54;100043.25;;;20.31;35.50
73633;BME280;61927;50.080;14.418;2023-05-25T12:44:36;100050.66;;;20.39;35.31
73633;BME280;61927;50.080;14.418;2023-05-25T12:47:16;100050.09;;;20.45;35.01
73633;BME280;61927;50.080;14.418;2023-05-25T12:49:46;100042.72;;;20.57;34.96
73633;BME280;61927;50.080;14.418;2023-05-25T12:52:38;100053.91;;;20.72;34.15
73633;BME280;61927;50.080;14.418;2023-05-25T12:55:24;100048.50;;;20.72;34.03
73633;BME280;61927;50.080;14.418;2023-05-25T13:00:46;100039.16;;;20.66;35.11
73633;BME280;61927;50.080;14.418;2023-05-25T13:03:12;100037.84;;;20.70;35.06
73633;BME280;61927;50.080;14.418;2023-05-25T13:05:38;100037.53;;;20.83;34.93